Terminal Aerodrome Forecast
Issued by NWS

Home | Current Version | Previous Version | Text Only | Print | Product List | Glossary On
Versions: 1 2 3 4 5 6 7 8 9 10 11 12 13 14 15 16
560
FTUS42 KMLB 231328 AAA
TAFLEE
TAF AMD
KLEE 231328Z 2313/2412 16010KT P6SM VCSH SCT015 BKN025 OVC200
     FM231700 17008KT P6SM VCSH BKN040 OVC150
      TEMPO 2318/2322 3SM SHRA BKN030
     FM232200 19006KT P6SM VCSH SCT040 BKN080=

USA.gov is the U.S. government's official web portal to all federal, state and local government web resources and services.